Time;durP1;ratioP1;P1;durP2;ratioP2;P2;SDS_P1;SDS_P2;PMS_P1;PMS_P2;Temp;Humidity;BMP_temperature;BMP_pressure;BME280_temperature;BME280_humidity;BME280_pressure;Samples;Min_cycle;Max_cycle;Signal;HPM_P1;HPM_P2
2021/06/10 00:02:15;;;;;;;;;;;15.10;99.90;;;;;;4981318;28;19930;-63
2021/06/10 00:04:43;;;;;;;;;;;15.00;99.90;;;;;;4987145;28;20319;-63
2021/06/10 00:07:13;;;;;;;;;;;14.90;99.90;;;;;;4984502;28;21089;-63
2021/06/10 00:09:41;;;;;;;;;;;14.90;99.90;;;;;;4984463;28;19945;-63
2021/06/10 00:12:09;;;;;;;;;;;14.90;99.90;;;;;;4984760;28;20356;-64
2021/06/10 00:14:37;;;;;;;;;;;14.90;99.90;;;;;;4980093;28;19933;-63
2021/06/10 00:17:04;;;;;;;;;;;14.90;99.90;;;;;;4977244;28;19938;-62
2021/06/10 00:19:32;;;;;;;;;;;14.80;99.90;;;;;;4984316;28;19972;-63
2021/06/10 00:22:00;;;;;;;;;;;14.80;99.90;;;;;;4979530;28;20408;-66
2021/06/10 00:24:29;;;;;;;;;;;14.70;99.90;;;;;;4982255;28;20349;-64
2021/06/10 00:26:57;;;;;;;;;;;14.70;99.90;;;;;;4982734;28;19934;-63
2021/06/10 00:29:25;;;;;;;;;;;14.60;99.90;;;;;;4980521;28;19933;-64
2021/06/10 00:31:53;;;;;;;;;;;14.60;99.90;;;;;;4976354;28;19962;-64
2021/06/10 00:34:24;;;;;;;;;;;14.60;99.90;;;;;;4968188;28;19926;-64
2021/06/10 00:36:53;;;;;;;;;;;14.60;99.90;;;;;;4982217;28;19937;-64
2021/06/10 00:39:22;;;;;;;;;;;14.60;99.90;;;;;;4980335;28;19926;-64
2021/06/10 00:41:51;;;;;;;;;;;14.60;99.90;;;;;;4982186;28;19933;-64
2021/06/10 00:44:19;;;;;;;;;;;14.60;99.90;;;;;;4979443;28;19926;-64
2021/06/10 00:46:46;;;;;;;;;;;14.60;99.90;;;;;;4962168;28;19930;-63
2021/06/10 00:49:14;;;;;;;;;;;14.60;99.90;;;;;;4982361;28;19993;-63
2021/06/10 00:51:42;;;;;;;;;;;14.60;99.90;;;;;;4978268;28;19951;-64
2021/06/10 00:54:09;;;;;;;;;;;14.50;99.90;;;;;;4982822;28;19981;-64
2021/06/10 00:56:37;;;;;;;;;;;14.50;99.90;;;;;;4989125;28;19925;-64
2021/06/10 00:59:06;;;;;;;;;;;14.50;99.90;;;;;;4987164;28;19969;-63
2021/06/10 01:01:34;;;;;;;;;;;14.50;99.90;;;;;;4974739;28;20008;-63
2021/06/10 01:04:02;;;;;;;;;;;14.50;99.90;;;;;;4981465;28;19934;-64
2021/06/10 01:06:32;;;;;;;;;;;14.40;99.90;;;;;;4980810;28;20401;-64
2021/06/10 01:09:02;;;;;;;;;;;14.30;99.90;;;;;;4984545;28;19941;-64
2021/06/10 01:11:38;;;;;;;;;;;14.30;99.90;;;;;;4985050;28;20020;-64
2021/06/10 01:14:16;;;;;;;;;;;14.30;99.90;;;;;;4980465;28;19930;-64
2021/06/10 01:17:09;;;;;;;;;;;14.30;99.90;;;;;;4977299;28;19934;-63
2021/06/10 01:19:51;;;;;;;;;;;14.30;99.90;;;;;;4983561;28;20020;-64
2021/06/10 01:22:23;;;;;;;;;;;14.30;99.90;;;;;;4980530;28;19938;-64
2021/06/10 01:24:55;;;;;;;;;;;14.30;99.90;;;;;;4979530;28;19925;-63
2021/06/10 01:27:26;;;;;;;;;;;14.20;99.90;;;;;;4983757;28;19934;-64
2021/06/10 01:29:58;;;;;;;;;;;14.20;99.90;;;;;;4978156;28;19926;-64
2021/06/10 01:32:26;;;;;;;;;;;14.10;99.90;;;;;;4975024;28;19926;-63
2021/06/10 01:34:55;;;;;;;;;;;14.10;99.90;;;;;;4978877;28;19965;-64
2021/06/10 01:37:23;;;;;;;;;;;14.10;99.90;;;;;;4979855;28;20449;-63
2021/06/10 01:39:52;;;;;;;;;;;14.10;99.90;;;;;;4988912;28;19981;-63
2021/06/10 01:42:20;;;;;;;;;;;14.10;99.90;;;;;;4986575;28;19948;-64
2021/06/10 01:44:51;;;;;;;;;;;14.10;99.90;;;;;;4982606;28;19926;-64
2021/06/10 01:47:20;;;;;;;;;;;14.10;99.90;;;;;;4976818;28;20025;-63
2021/06/10 01:49:49;;;;;;;;;;;14.10;99.90;;;;;;4983850;28;20342;-63
2021/06/10 01:52:18;;;;;;;;;;;14.10;99.90;;;;;;4984094;28;20271;-65
2021/06/10 01:54:45;;;;;;;;;;;14.10;99.90;;;;;;4986297;28;19972;-63
2021/06/10 01:57:13;;;;;;;;;;;14.00;99.90;;;;;;4985596;28;20390;-63
2021/06/10 01:59:42;;;;;;;;;;;14.00;99.90;;;;;;4989975;28;20471;-65
2021/06/10 02:02:12;;;;;;;;;;;14.10;99.90;;;;;;4980414;28;19926;-64
2021/06/10 02:04:41;;;;;;;;;;;14.20;99.90;;;;;;4986981;28;20293;-64
2021/06/10 02:07:11;;;;;;;;;;;14.10;99.90;;;;;;4982110;28;19930;-63
2021/06/10 02:09:41;;;;;;;;;;;14.10;99.90;;;;;;4982635;28;20037;-63
2021/06/10 02:12:08;;;;;;;;;;;14.00;99.90;;;;;;4983564;28;20360;-63
2021/06/10 02:14:36;;;;;;;;;;;14.00;99.90;;;;;;4966326;28;19933;-64
2021/06/10 02:17:05;;;;;;;;;;;14.00;99.90;;;;;;4978038;28;19945;-64
2021/06/10 02:19:35;;;;;;;;;;;13.90;99.90;;;;;;4980364;28;19926;-64
2021/06/10 02:24:55;;;;;;;;;;;13.80;99.90;;;;;;4981767;28;19930;-63
2021/06/10 02:27:23;;;;;;;;;;;13.80;99.90;;;;;;4986461;28;20024;-63
2021/06/10 02:29:51;;;;;;;;;;;13.80;99.90;;;;;;4982954;28;19926;-63
2021/06/10 02:32:19;;;;;;;;;;;13.80;99.90;;;;;;4979149;28;20030;-63
2021/06/10 02:34:48;;;;;;;;;;;13.80;99.90;;;;;;4985127;28;19934;-63
2021/06/10 02:37:17;;;;;;;;;;;13.70;99.90;;;;;;4982469;28;19926;-63
2021/06/10 02:39:46;;;;;;;;;;;13.70;99.90;;;;;;4980613;28;20007;-63
2021/06/10 02:42:15;;;;;;;;;;;13.70;99.90;;;;;;4979092;28;19933;-63
2021/06/10 02:44:45;;;;;;;;;;;13.70;99.90;;;;;;4982335;28;19926;-63
2021/06/10 02:47:13;;;;;;;;;;;13.70;99.90;;;;;;4986124;28;20294;-64
2021/06/10 02:49:41;;;;;;;;;;;13.70;99.90;;;;;;4985404;28;20370;-64
2021/06/10 02:52:11;;;;;;;;;;;13.70;99.90;;;;;;4971443;28;19930;-63
2021/06/10 02:54:38;;;;;;;;;;;13.70;99.90;;;;;;4981380;28;19926;-66
2021/06/10 02:57:07;;;;;;;;;;;13.70;99.90;;;;;;4974672;28;19941;-63
2021/06/10 02:59:35;;;;;;;;;;;13.80;99.90;;;;;;4983349;28;19941;-63
2021/06/10 03:02:03;;;;;;;;;;;13.80;99.90;;;;;;4976660;28;19968;-66
2021/06/10 03:04:32;;;;;;;;;;;13.80;99.90;;;;;;4979857;28;19973;-63
2021/06/10 03:07:00;;;;;;;;;;;13.90;99.90;;;;;;4984423;28;19949;-63
2021/06/10 03:09:31;;;;;;;;;;;13.90;99.90;;;;;;4982790;28;19926;-64
2021/06/10 03:11:58;;;;;;;;;;;13.90;99.90;;;;;;4983713;28;19941;-63
2021/06/10 03:14:26;;;;;;;;;;;13.80;99.90;;;;;;4986200;28;19926;-64
2021/06/10 03:16:55;;;;;;;;;;;13.80;99.90;;;;;;4977662;28;19933;-64
2021/06/10 03:19:23;;;;;;;;;;;13.90;99.90;;;;;;4980811;28;20342;-64
2021/06/10 03:22:16;;;;;;;;;;;13.90;99.90;;;;;;4970290;28;19930;-64
2021/06/10 03:24:46;;;;;;;;;;;13.80;99.90;;;;;;4985403;28;19925;-64
2021/06/10 03:27:14;;;;;;;;;;;13.90;99.90;;;;;;4988882;28;19926;-64
2021/06/10 03:29:42;;;;;;;;;;;13.90;99.90;;;;;;4985689;28;19965;-64
2021/06/10 03:32:10;;;;;;;;;;;14.00;99.90;;;;;;4978665;28;20444;-64
2021/06/10 03:34:38;;;;;;;;;;;14.00;99.90;;;;;;4984529;28;20283;-64
2021/06/10 03:37:06;;;;;;;;;;;14.00;99.90;;;;;;4985065;28;19926;-64
2021/06/10 03:39:35;;;;;;;;;;;14.00;99.90;;;;;;4984342;28;19926;-66
2021/06/10 03:42:06;;;;;;;;;;;14.10;99.90;;;;;;4992110;28;19926;-63
2021/06/10 03:44:35;;;;;;;;;;;14.10;99.90;;;;;;4990144;28;20021;-64
2021/06/10 03:47:05;;;;;;;;;;;14.00;99.90;;;;;;4981296;28;20552;-63
2021/06/10 03:49:33;;;;;;;;;;;14.00;99.90;;;;;;4985902;28;19932;-64
2021/06/10 03:52:00;;;;;;;;;;;13.90;99.90;;;;;;4990168;28;19930;-64
2021/06/10 03:54:28;;;;;;;;;;;13.90;99.90;;;;;;4983323;28;19926;-63
2021/06/10 03:56:56;;;;;;;;;;;13.90;99.90;;;;;;4989592;28;19998;-64
2021/06/10 03:59:25;;;;;;;;;;;14.00;99.90;;;;;;4988418;28;19940;-64
2021/06/10 04:01:53;;;;;;;;;;;14.10;99.90;;;;;;4982123;28;19934;-63
2021/06/10 04:04:20;;;;;;;;;;;14.10;99.90;;;;;;4983528;28;19934;-63
2021/06/10 04:06:48;;;;;;;;;;;14.20;99.90;;;;;;4985004;28;20298;-63
2021/06/10 04:09:16;;;;;;;;;;;14.20;99.90;;;;;;4985775;28;19941;-65
2021/06/10 04:11:44;;;;;;;;;;;14.20;99.90;;;;;;4981584;28;19926;-64
2021/06/10 04:14:12;;;;;;;;;;;14.30;99.90;;;;;;4979325;28;20006;-63
2021/06/10 04:16:41;;;;;;;;;;;14.30;99.90;;;;;;4982186;28;19926;-63
2021/06/10 04:19:09;;;;;;;;;;;14.30;99.90;;;;;;4991072;28;20237;-64
2021/06/10 04:21:37;;;;;;;;;;;14.40;99.90;;;;;;4994751;28;19926;-65
2021/06/10 04:24:05;;;;;;;;;;;14.40;99.90;;;;;;4991236;28;19977;-62
2021/06/10 04:26:33;;;;;;;;;;;14.40;99.90;;;;;;4993217;28;19926;-63
2021/06/10 04:31:55;;;;;;;;;;;14.40;99.90;;;;;;4976064;28;20346;-65
2021/06/10 04:34:25;;;;;;;;;;;14.40;99.90;;;;;;4985392;28;19930;-63
2021/06/10 04:36:52;;;;;;;;;;;14.50;99.90;;;;;;4988790;28;19930;-63
2021/06/10 04:39:25;;;;;;;;;;;14.60;99.90;;;;;;4970074;28;19993;-64
2021/06/10 04:41:53;;;;;;;;;;;14.70;99.90;;;;;;4989735;28;20008;-63
2021/06/10 04:44:20;;;;;;;;;;;14.70;99.90;;;;;;4990942;28;20570;-63
2021/06/10 04:46:48;;;;;;;;;;;14.80;99.90;;;;;;4980082;28;19937;-63
2021/06/10 04:49:18;;;;;;;;;;;14.80;99.90;;;;;;4989283;28;19926;-63
2021/06/10 04:51:46;;;;;;;;;;;14.80;99.90;;;;;;4994929;28;19926;-63
2021/06/10 04:54:13;;;;;;;;;;;14.90;99.90;;;;;;4997268;28;19926;-63
2021/06/10 04:56:41;;;;;;;;;;;14.90;99.90;;;;;;4997181;28;19930;-64
2021/06/10 04:59:09;;;;;;;;;;;15.00;99.90;;;;;;4996417;28;19934;-63
2021/06/10 05:01:37;;;;;;;;;;;15.00;99.90;;;;;;4987943;28;19981;-63
2021/06/10 05:04:04;;;;;;;;;;;15.10;99.90;;;;;;4993555;28;19964;-65
2021/06/10 05:06:34;;;;;;;;;;;15.20;99.90;;;;;;4996048;28;19933;-66
2021/06/10 05:09:02;;;;;;;;;;;15.30;99.90;;;;;;4992320;28;19937;-64
2021/06/10 05:11:30;;;;;;;;;;;15.40;99.90;;;;;;4996286;28;19926;-66
2021/06/10 05:14:01;;;;;;;;;;;15.50;99.90;;;;;;4994037;28;19926;-68
2021/06/10 05:16:29;;;;;;;;;;;15.60;99.90;;;;;;4991322;28;19925;-66
2021/06/10 05:18:57;;;;;;;;;;;15.60;99.90;;;;;;4996514;28;19930;-65
2021/06/10 05:21:24;;;;;;;;;;;15.80;99.90;;;;;;4993370;28;19926;-66
2021/06/10 05:23:53;;;;;;;;;;;15.90;99.90;;;;;;4986580;28;19930;-65
2021/06/10 05:26:21;;;;;;;;;;;16.10;99.90;;;;;;4995017;28;19926;-64
2021/06/10 05:28:50;;;;;;;;;;;16.20;99.90;;;;;;4997285;28;19925;-64
2021/06/10 05:31:42;;;;;;;;;;;16.10;99.90;;;;;;4987129;28;20008;-65
2021/06/10 05:34:11;;;;;;;;;;;15.90;99.90;;;;;;4992739;28;19932;-65
2021/06/10 05:37:06;;;;;;;;;;;15.80;99.90;;;;;;4990449;28;20377;-65
2021/06/10 05:39:35;;;;;;;;;;;15.80;99.90;;;;;;4994851;28;19926;-65
2021/06/10 05:42:07;;;;;;;;;;;15.80;99.90;;;;;;4995680;28;19980;-65
2021/06/10 05:44:34;;;;;;;;;;;15.90;99.90;;;;;;4970740;28;19997;-65
2021/06/10 05:47:03;;;;;;;;;;;15.80;99.90;;;;;;4991038;28;20243;-65
2021/06/10 05:49:30;;;;;;;;;;;15.70;99.90;;;;;;4980008;28;19926;-65
2021/06/10 05:51:58;;;;;;;;;;;15.60;99.90;;;;;;4999211;28;19957;-65
2021/06/10 05:54:26;;;;;;;;;;;15.70;99.90;;;;;;4995230;28;19926;-64
2021/06/10 05:56:56;;;;;;;;;;;15.80;99.90;;;;;;4976804;28;19937;-65
2021/06/10 05:59:23;;;;;;;;;;;15.90;99.90;;;;;;4996795;28;19925;-65
2021/06/10 06:01:51;;;;;;;;;;;16.00;99.90;;;;;;4986197;28;20318;-65
2021/06/10 06:04:19;;;;;;;;;;;16.30;99.90;;;;;;4991460;28;19933;-65
2021/06/10 06:06:46;;;;;;;;;;;16.60;99.90;;;;;;4991674;28;20314;-66
2021/06/10 06:09:15;;;;;;;;;;;16.80;99.90;;;;;;4995565;28;19926;-65
2021/06/10 06:11:44;;;;;;;;;;;16.60;99.90;;;;;;4978129;28;20248;-65
2021/06/10 06:14:14;;;;;;;;;;;16.60;99.90;;;;;;4975892;28;19969;-70
2021/06/10 06:16:43;;;;;;;;;;;16.60;99.90;;;;;;4972988;28;20318;-65
2021/06/10 06:19:12;;;;;;;;;;;16.50;99.90;;;;;;4995156;28;20041;-65
2021/06/10 06:21:41;;;;;;;;;;;16.90;99.90;;;;;;4995464;28;20020;-66
2021/06/10 06:24:09;;;;;;;;;;;17.30;99.90;;;;;;4990305;28;19926;-66
2021/06/10 06:26:42;;;;;;;;;;;17.30;99.90;;;;;;4988849;28;20018;-65
2021/06/10 06:29:10;;;;;;;;;;;17.30;99.90;;;;;;4979231;28;19980;-68
2021/06/10 06:31:39;;;;;;;;;;;17.50;99.90;;;;;;4990708;28;19946;-64
2021/06/10 06:34:07;;;;;;;;;;;17.70;99.90;;;;;;4997430;28;19926;-66
2021/06/10 06:36:35;;;;;;;;;;;17.90;99.90;;;;;;4996392;28;19948;-64
2021/06/10 06:42:21;;;;;;;;;;;17.90;99.90;;;;;;4991965;28;19926;-64
2021/06/10 06:44:52;;;;;;;;;;;17.30;99.90;;;;;;4995833;28;19996;-69
2021/06/10 06:47:21;;;;;;;;;;;17.20;99.90;;;;;;4972344;28;19962;-65
2021/06/10 06:49:50;;;;;;;;;;;17.10;99.90;;;;;;4993939;28;20017;-65
2021/06/10 06:52:18;;;;;;;;;;;17.10;99.90;;;;;;4987053;28;19941;-68
2021/06/10 06:54:45;;;;;;;;;;;17.20;99.90;;;;;;4974446;28;20366;-65
2021/06/10 06:57:13;;;;;;;;;;;17.80;99.90;;;;;;4970780;28;20298;-69
2021/06/10 06:59:41;;;;;;;;;;;18.50;99.90;;;;;;4991318;28;19949;-65
2021/06/10 07:02:09;;;;;;;;;;;18.00;99.90;;;;;;4979462;28;19991;-68
2021/06/10 07:04:38;;;;;;;;;;;18.30;99.90;;;;;;4995513;28;19933;-68
2021/06/10 07:07:06;;;;;;;;;;;18.60;99.90;;;;;;4995586;28;19941;-65
2021/06/10 07:09:34;;;;;;;;;;;18.40;99.90;;;;;;4995948;28;20366;-65
2021/06/10 07:12:02;;;;;;;;;;;18.20;99.90;;;;;;4995809;28;19926;-65
2021/06/10 07:14:30;;;;;;;;;;;18.60;99.90;;;;;;4997435;28;20366;-67
2021/06/10 07:16:58;;;;;;;;;;;18.70;99.90;;;;;;4973060;28;19934;-70
2021/06/10 07:19:27;;;;;;;;;;;19.40;99.90;;;;;;4991295;28;19984;-67
2021/06/10 07:21:57;;;;;;;;;;;20.00;99.90;;;;;;4978444;28;19926;-67
2021/06/10 07:24:46;;;;;;;;;;;20.30;99.90;;;;;;4989415;28;19980;-65
2021/06/10 07:27:14;;;;;;;;;;;20.90;99.90;;;;;;4960968;28;20016;-64
2021/06/10 07:29:42;;;;;;;;;;;20.30;99.90;;;;;;4996095;28;19936;-64
2021/06/10 07:32:10;;;;;;;;;;;21.60;99.90;;;;;;4989745;28;20289;-65
2021/06/10 07:34:38;;;;;;;;;;;23.30;99.90;;;;;;4996115;28;20028;-63
2021/06/10 07:37:08;;;;;;;;;;;25.80;99.90;;;;;;4978908;28;19933;-64
2021/06/10 07:39:36;;;;;;;;;;;28.70;97.80;;;;;;4996325;28;19968;-64
2021/06/10 07:42:04;;;;;;;;;;;27.30;97.30;;;;;;4984275;28;20517;-64
2021/06/10 07:44:32;;;;;;;;;;;27.20;97.80;;;;;;4994181;28;20390;-64
2021/06/10 07:47:05;;;;;;;;;;;28.60;96.70;;;;;;4987638;28;19926;-65
2021/06/10 07:49:33;;;;;;;;;;;29.40;93.00;;;;;;4987736;28;20446;-65
2021/06/10 07:52:02;;;;;;;;;;;28.40;93.10;;;;;;4986299;28;20374;-65
2021/06/10 07:54:31;;;;;;;;;;;26.50;96.00;;;;;;4977024;28;19934;-64
2021/06/10 07:57:05;;;;;;;;;;;26.80;97.60;;;;;;4968733;28;19932;-65
2021/06/10 07:59:33;;;;;;;;;;;26.90;96.80;;;;;;4987396;28;20374;-67
2021/06/10 08:02:08;;;;;;;;;;;28.20;96.20;;;;;;4988287;28;19926;-65
2021/06/10 08:04:37;;;;;;;;;;;28.40;93.60;;;;;;4992445;28;20178;-65
2021/06/10 08:07:05;;;;;;;;;;;28.40;93.10;;;;;;4988985;23;19925;-66
2021/06/10 08:09:34;;;;;;;;;;;28.10;93.90;;;;;;4980886;28;19926;-66
2021/06/10 08:12:02;;;;;;;;;;;27.70;95.10;;;;;;5004154;23;20061;-65
2021/06/10 08:14:30;;;;;;;;;;;27.20;94.70;;;;;;4992595;28;19933;-65
2021/06/10 08:16:58;;;;;;;;;;;27.20;96.90;;;;;;4980261;28;19991;-65
2021/06/10 08:19:25;;;;;;;;;;;26.90;96.80;;;;;;4946228;28;19998;-66
2021/06/10 08:21:53;;;;;;;;;;;28.40;95.40;;;;;;4973233;28;20291;-65
2021/06/10 08:24:21;;;;;;;;;;;28.80;94.20;;;;;;4992031;28;20403;-65
2021/06/10 08:26:51;;;;;;;;;;;31.00;90.80;;;;;;4967359;28;19934;-65
2021/06/10 08:29:19;;;;;;;;;;;28.50;91.40;;;;;;4987772;28;20351;-65
2021/06/10 08:31:47;;;;;;;;;;;28.00;94.40;;;;;;4983034;28;20010;-64
2021/06/10 08:34:40;;;;;;;;;;;28.60;93.10;;;;;;4988180;28;20012;-65
2021/06/10 08:37:07;;;;;;;;;;;31.20;90.80;;;;;;4986060;28;19934;-66
2021/06/10 08:39:39;;;;;;;;;;;30.00;89.90;;;;;;4967115;28;20309;-65
2021/06/10 08:42:36;;;;;;;;;;;29.70;91.40;;;;;;4990784;28;19934;-64
2021/06/10 08:45:08;;;;;;;;;;;30.10;90.50;;;;;;4981653;28;19926;-64
2021/06/10 08:47:38;;;;;;;;;;;30.10;87.80;;;;;;4991092;28;19926;-64
2021/06/10 08:50:07;;;;;;;;;;;32.70;84.70;;;;;;4973527;28;20021;-64
2021/06/10 08:52:35;;;;;;;;;;;31.00;84.20;;;;;;4990664;28;19926;-64
2021/06/10 08:55:03;;;;;;;;;;;31.50;83.40;;;;;;4991513;28;19926;-64
2021/06/10 08:57:31;;;;;;;;;;;32.90;81.80;;;;;;4990658;28;19926;-64
2021/06/10 08:59:58;;;;;;;;;;;35.50;69.70;;;;;;4969529;28;19930;-64
2021/06/10 09:02:27;;;;;;;;;;;36.20;65.70;;;;;;4939782;28;19926;-64
2021/06/10 09:05:00;;;;;;;;;;;35.10;61.60;;;;;;4990158;28;19942;-64
2021/06/10 09:07:34;;;;;;;;;;;33.50;70.20;;;;;;4973480;28;20424;-64
2021/06/10 09:10:04;;;;;;;;;;;34.60;66.50;;;;;;4990584;28;19925;-64
2021/06/10 09:12:36;;;;;;;;;;;31.80;71.00;;;;;;4990438;28;20000;-65
2021/06/10 09:15:09;;;;;;;;;;;30.40;76.30;;;;;;4984434;28;19926;-64
2021/06/10 09:17:41;;;;;;;;;;;30.00;79.60;;;;;;4984435;28;19925;-65
2021/06/10 09:20:27;;;;;;;;;;;30.20;79.20;;;;;;4990572;28;19930;-64
2021/06/10 09:23:08;;;;;;;;;;;30.80;79.90;;;;;;4988184;28;19930;-64
2021/06/10 09:25:36;;;;;;;;;;;31.20;79.50;;;;;;4990307;28;19933;-64
2021/06/10 09:28:05;;;;;;;;;;;33.90;70.00;;;;;;4989289;28;20302;-64
2021/06/10 09:30:34;;;;;;;;;;;33.00;72.80;;;;;;4965524;28;19926;-64
2021/06/10 09:33:05;;;;;;;;;;;32.80;70.40;;;;;;4991038;28;19930;-65
2021/06/10 09:35:34;;;;;;;;;;;30.20;76.00;;;;;;4986536;28;20014;-65
2021/06/10 09:38:04;;;;;;;;;;;30.90;75.90;;;;;;4972997;28;19934;-65
2021/06/10 09:40:32;;;;;;;;;;;30.90;72.30;;;;;;4990067;28;20424;-65
2021/06/10 09:43:00;;;;;;;;;;;31.40;74.00;;;;;;4990270;28;20332;-65
2021/06/10 09:45:29;;;;;;;;;;;31.90;72.50;;;;;;4980458;28;19926;-65
2021/06/10 09:47:59;;;;;;;;;;;30.10;77.20;;;;;;4990208;28;19925;-65
2021/06/10 09:50:30;;;;;;;;;;;29.30;80.70;;;;;;4991101;28;20440;-64
2021/06/10 09:52:59;;;;;;;;;;;29.60;81.20;;;;;;4988289;28;19925;-66
2021/06/10 09:55:29;;;;;;;;;;;29.70;80.20;;;;;;4990849;28;19926;-65
2021/06/10 09:57:57;;;;;;;;;;;28.60;82.60;;;;;;4973892;28;19976;-64
2021/06/10 10:00:25;;;;;;;;;;;27.60;86.70;;;;;;4987634;28;19925;-66
2021/06/10 10:02:53;;;;;;;;;;;27.20;87.80;;;;;;4994534;28;19934;-65
2021/06/10 10:05:22;;;;;;;;;;;26.70;88.40;;;;;;4994971;28;20185;-64
2021/06/10 10:07:53;;;;;;;;;;;26.40;90.10;;;;;;4995371;28;20316;-64
2021/06/10 10:10:23;;;;;;;;;;;25.70;91.50;;;;;;4995039;28;20475;-64
2021/06/10 10:12:53;;;;;;;;;;;25.80;92.50;;;;;;4982266;28;20385;-64
2021/06/10 10:15:22;;;;;;;;;;;25.80;91.10;;;;;;4982872;28;19930;-65
2021/06/10 10:17:50;;;;;;;;;;;26.20;90.80;;;;;;4995188;28;19930;-65
2021/06/10 10:20:19;;;;;;;;;;;27.10;87.80;;;;;;4988419;28;20025;-65
2021/06/10 10:22:46;;;;;;;;;;;26.90;87.90;;;;;;4993713;28;19953;-64
2021/06/10 10:25:16;;;;;;;;;;;26.50;89.20;;;;;;4994557;28;20020;-65
2021/06/10 10:27:45;;;;;;;;;;;27.60;85.50;;;;;;4994212;28;20022;-65
2021/06/10 10:30:14;;;;;;;;;;;29.70;80.10;;;;;;4986830;28;19975;-64
2021/06/10 10:32:44;;;;;;;;;;;30.40;78.70;;;;;;4987750;28;20294;-64
2021/06/10 10:35:26;;;;;;;;;;;29.10;81.40;;;;;;4990948;28;20333;-65
2021/06/10 10:37:55;;;;;;;;;;;26.70;85.00;;;;;;4994325;28;19925;-64
2021/06/10 10:40:25;;;;;;;;;;;26.20;90.00;;;;;;4983207;28;20056;-64
2021/06/10 10:42:54;;;;;;;;;;;26.20;89.60;;;;;;4988946;28;20033;-65
2021/06/10 10:45:24;;;;;;;;;;;26.00;89.00;;;;;;4984760;28;19933;-65
2021/06/10 10:47:59;;;;;;;;;;;25.80;87.70;;;;;;4992395;28;19951;-65
2021/06/10 10:50:31;;;;;;;;;;;25.60;90.10;;;;;;4994122;28;19926;-65
2021/06/10 10:52:59;;;;;;;;;;;25.70;90.50;;;;;;4995371;28;19932;-64
2021/06/10 10:55:30;;;;;;;;;;;25.20;90.10;;;;;;4989334;28;19961;-64
2021/06/10 10:57:59;;;;;;;;;;;25.20;91.60;;;;;;5010379;28;19965;-64
2021/06/10 11:00:45;;;;;;;;;;;25.50;91.10;;;;;;4990095;28;19926;-65
2021/06/10 11:03:17;;;;;;;;;;;26.20;91.50;;;;;;4993476;28;20396;-64
2021/06/10 11:05:46;;;;;;;;;;;27.50;86.50;;;;;;4993196;28;19973;-64
2021/06/10 11:08:17;;;;;;;;;;;28.50;82.60;;;;;;4994200;28;19926;-65
2021/06/10 11:11:03;;;;;;;;;;;28.30;82.20;;;;;;4992630;28;20012;-66
2021/06/10 11:13:49;;;;;;;;;;;28.20;80.50;;;;;;4993967;28;20021;-65
2021/06/10 11:16:17;;;;;;;;;;;27.60;80.20;;;;;;4969766;28;20287;-64
2021/06/10 11:18:46;;;;;;;;;;;26.70;82.30;;;;;;4966161;28;19926;-65
2021/06/10 11:21:34;;;;;;;;;;;26.50;85.70;;;;;;4967353;28;19972;-65
2021/06/10 11:24:12;;;;;;;;;;;26.80;85.10;;;;;;4960270;28;20436;-64
2021/06/10 11:26:47;;;;;;;;;;;27.10;84.80;;;;;;4993499;28;19984;-64
2021/06/10 11:29:17;;;;;;;;;;;27.60;83.80;;;;;;4986912;28;19977;-64
2021/06/10 11:32:16;;;;;;;;;;;26.70;81.30;;;;;;4987797;28;20017;-65
2021/06/10 11:34:49;;;;;;;;;;;26.30;83.60;;;;;;4952641;28;20075;-64
2021/06/10 11:37:19;;;;;;;;;;;26.40;87.10;;;;;;4976874;28;19976;-64
2021/06/10 11:39:47;;;;;;;;;;;26.50;85.30;;;;;;4967651;28;19992;-64
2021/06/10 11:42:18;;;;;;;;;;;26.80;84.70;;;;;;4988883;28;19925;-66
2021/06/10 11:44:48;;;;;;;;;;;27.40;83.50;;;;;;4994072;28;19961;-64
2021/06/10 11:47:23;;;;;;;;;;;27.80;81.60;;;;;;4986833;28;19926;-67
2021/06/10 11:49:51;;;;;;;;;;;28.20;78.90;;;;;;4975733;28;19937;-64
2021/06/10 11:52:20;;;;;;;;;;;28.10;79.30;;;;;;4993973;28;19926;-64
2021/06/10 11:55:04;;;;;;;;;;;27.60;77.60;;;;;;4991355;28;19933;-65
2021/06/10 11:57:32;;;;;;;;;;;27.60;79.20;;;;;;4993550;28;20346;-64
2021/06/10 12:00:11;;;;;;;;;;;27.20;79.70;;;;;;4987215;28;19930;-64
2021/06/10 12:02:40;;;;;;;;;;;26.80;81.30;;;;;;4988122;28;19929;-65
2021/06/10 12:05:11;;;;;;;;;;;26.50;82.30;;;;;;4975997;28;20037;-65
2021/06/10 12:07:39;;;;;;;;;;;26.90;82.30;;;;;;4992814;28;20289;-65
2021/06/10 12:10:10;;;;;;;;;;;27.20;82.30;;;;;;4963600;28;19926;-70
2021/06/10 12:12:40;;;;;;;;;;;27.50;79.80;;;;;;4965281;28;19937;-68
2021/06/10 12:15:09;;;;;;;;;;;27.40;79.90;;;;;;4967600;28;19973;-64
2021/06/10 12:17:54;;;;;;;;;;;27.50;80.80;;;;;;4972943;28;19929;-64
2021/06/10 12:20:25;;;;;;;;;;;27.60;80.70;;;;;;4973209;28;19926;-68
2021/06/10 12:23:00;;;;;;;;;;;27.60;80.70;;;;;;4942142;29;19927;-64
2021/06/10 12:25:28;;;;;;;;;;;27.70;80.90;;;;;;4973300;28;20021;-65
2021/06/10 12:27:58;;;;;;;;;;;27.70;82.00;;;;;;4956658;28;19951;-65
2021/06/10 12:30:30;;;;;;;;;;;28.10;82.40;;;;;;4930843;28;19961;-69
2021/06/10 12:33:12;;;;;;;;;;;27.90;77.80;;;;;;4947602;28;20367;-65
2021/06/10 12:35:42;;;;;;;;;;;27.60;79.80;;;;;;4970732;28;19968;-65
2021/06/10 12:38:10;;;;;;;;;;;27.80;81.30;;;;;;4974161;28;19965;-65
2021/06/10 12:40:39;;;;;;;;;;;27.70;78.60;;;;;;4970672;28;19935;-65
2021/06/10 12:43:20;;;;;;;;;;;27.40;79.70;;;;;;4973717;28;19930;-65
2021/06/10 12:45:49;;;;;;;;;;;27.70;80.80;;;;;;4965134;28;19969;-65
2021/06/10 12:48:22;;;;;;;;;;;27.80;81.10;;;;;;4972779;28;20020;-65
2021/06/10 12:50:50;;;;;;;;;;;27.80;80.10;;;;;;4972565;28;19965;-65
2021/06/10 12:53:19;;;;;;;;;;;27.70;80.50;;;;;;4973244;28;19933;-64
2021/06/10 12:55:46;;;;;;;;;;;27.50;80.70;;;;;;4954790;28;19937;-65
2021/06/10 12:58:20;;;;;;;;;;;27.40;82.70;;;;;;4973301;28;20016;-64
2021/06/10 13:00:48;;;;;;;;;;;27.60;81.90;;;;;;4966182;28;19980;-65
2021/06/10 13:03:16;;;;;;;;;;;28.10;78.50;;;;;;4973058;28;19945;-65
2021/06/10 13:05:46;;;;;;;;;;;28.20;79.60;;;;;;4956046;28;19989;-65
2021/06/10 13:08:29;;;;;;;;;;;28.20;74.00;;;;;;4972436;28;20318;-64
2021/06/10 13:10:58;;;;;;;;;;;28.10;75.80;;;;;;4973807;28;19962;-64
2021/06/10 13:13:29;;;;;;;;;;;28.20;78.90;;;;;;4990042;28;19932;-64
2021/06/10 13:16:01;;;;;;;;;;;27.90;78.10;;;;;;4986526;28;19996;-64
2021/06/10 13:18:32;;;;;;;;;;;27.60;78.40;;;;;;4992591;28;19942;-65
2021/06/10 13:21:05;;;;;;;;;;;27.30;78.80;;;;;;4993140;28;19957;-65
2021/06/10 13:23:40;;;;;;;;;;;27.10;79.80;;;;;;4989963;28;20374;-63
2021/06/10 13:26:09;;;;;;;;;;;26.90;80.70;;;;;;4991111;28;19926;-66
2021/06/10 13:28:37;;;;;;;;;;;27.10;82.10;;;;;;4974882;28;19930;-65
2021/06/10 13:31:17;;;;;;;;;;;27.20;81.30;;;;;;4985998;28;19926;-64
2021/06/10 13:33:49;;;;;;;;;;;27.30;81.70;;;;;;4994998;28;19925;-64
2021/06/10 13:36:23;;;;;;;;;;;27.40;82.50;;;;;;4966602;28;19926;-65
2021/06/10 13:38:51;;;;;;;;;;;27.40;81.80;;;;;;4995861;28;20266;-65
2021/06/10 13:41:20;;;;;;;;;;;27.50;82.80;;;;;;4990700;28;20382;-65
2021/06/10 13:43:48;;;;;;;;;;;27.60;79.60;;;;;;4977148;28;20362;-64
2021/06/10 13:46:16;;;;;;;;;;;27.40;80.60;;;;;;4957263;28;20432;-64
2021/06/10 13:48:44;;;;;;;;;;;27.40;79.70;;;;;;4977425;28;20024;-65
2021/06/10 13:51:12;;;;;;;;;;;27.40;81.10;;;;;;4996102;28;19926;-64
2021/06/10 13:53:43;;;;;;;;;;;27.50;80.60;;;;;;4996130;28;19926;-63
2021/06/10 13:56:11;;;;;;;;;;;27.70;80.20;;;;;;4995198;28;19949;-64
2021/06/10 13:58:39;;;;;;;;;;;27.50;78.90;;;;;;4995440;28;19930;-64
2021/06/10 14:01:07;;;;;;;;;;;27.30;78.90;;;;;;4986916;28;19948;-64
2021/06/10 14:03:35;;;;;;;;;;;27.30;80.40;;;;;;4995272;28;19949;-65
2021/06/10 14:06:03;;;;;;;;;;;27.40;81.30;;;;;;4995087;28;19941;-66
2021/06/10 14:11:24;;;;;;;;;;;27.60;79.30;;;;;;4995050;28;19930;-64
2021/06/10 14:13:53;;;;;;;;;;;27.20;80.50;;;;;;4994864;28;19933;-65
2021/06/10 14:16:22;;;;;;;;;;;27.20;81.10;;;;;;4968440;28;19962;-65
2021/06/10 14:18:51;;;;;;;;;;;27.20;79.70;;;;;;4967570;28;19930;-68
2021/06/10 14:21:23;;;;;;;;;;;27.20;80.90;;;;;;4990855;28;19934;-64
2021/06/10 14:23:51;;;;;;;;;;;27.30;80.30;;;;;;4993523;28;19925;-65
2021/06/10 14:26:20;;;;;;;;;;;27.30;79.10;;;;;;4995416;28;20370;-64
2021/06/10 14:28:52;;;;;;;;;;;27.40;81.90;;;;;;4995436;28;19964;-63
2021/06/10 14:34:30;;;;;;;;;;;27.10;86.50;;;;;;4989199;28;19926;-64
2021/06/10 14:36:58;;;;;;;;;;;27.10;87.50;;;;;;4989343;28;19926;-64
2021/06/10 14:39:51;;;;;;;;;;;27.20;87.50;;;;;;4994995;28;19965;-64
2021/06/10 14:42:20;;;;;;;;;;;27.30;85.70;;;;;;4992774;28;20020;-64
2021/06/10 14:44:49;;;;;;;;;;;27.50;84.90;;;;;;4973165;28;19934;-64
2021/06/10 14:47:17;;;;;;;;;;;27.60;83.70;;;;;;4942446;28;19933;-64
2021/06/10 14:49:45;;;;;;;;;;;27.60;84.20;;;;;;4995267;28;19926;-67